sensor_id;sensor_type;location;lat;lon;timestamp;P1;durP1;ratioP1;P2;durP2;ratioP2
63874;SDS011;51595;24.180;-110.296;2023-07-16T00:01:57;6.88;;;0.70;;
63874;SDS011;51595;24.180;-110.296;2023-07-16T00:04:23;1.00;;;0.90;;
63874;SDS011;51595;24.180;-110.296;2023-07-16T00:06:50;1.33;;;0.75;;
63874;SDS011;51595;24.180;-110.296;2023-07-16T00:09:16;2.08;;;1.00;;
63874;SDS011;51595;24.180;-110.296;2023-07-16T00:11:43;1.88;;;0.90;;
63874;SDS011;51595;24.180;-110.296;2023-07-16T00:14:10;1.08;;;0.80;;
63874;SDS011;51595;24.180;-110.296;2023-07-16T00:16:37;10.30;;;1.00;;
63874;SDS011;51595;24.180;-110.296;2023-07-16T00:19:04;2.47;;;0.60;;
63874;SDS011;51595;24.180;-110.296;2023-07-16T00:21:30;1.58;;;0.75;;
63874;SDS011;51595;24.180;-110.296;2023-07-16T00:23:57;1.00;;;0.77;;
63874;SDS011;51595;24.180;-110.296;2023-07-16T00:26:24;1.30;;;1.00;;
63874;SDS011;51595;24.180;-110.296;2023-07-16T00:28:52;3.70;;;1.15;;
63874;SDS011;51595;24.180;-110.296;2023-07-16T00:31:18;3.38;;;1.20;;
63874;SDS011;51595;24.180;-110.296;2023-07-16T00:33:45;1.52;;;0.98;;
63874;SDS011;51595;24.180;-110.296;2023-07-16T00:36:11;2.42;;;1.13;;
63874;SDS011;51595;24.180;-110.296;2023-07-16T00:38:37;1.50;;;0.82;;
63874;SDS011;51595;24.180;-110.296;2023-07-16T00:41:08;1.95;;;0.93;;
63874;SDS011;51595;24.180;-110.296;2023-07-16T00:43:34;0.98;;;0.80;;
63874;SDS011;51595;24.180;-110.296;2023-07-16T00:46:01;7.15;;;1.38;;
63874;SDS011;51595;24.180;-110.296;2023-07-16T00:48:28;3.50;;;1.73;;
63874;SDS011;51595;24.180;-110.296;2023-07-16T00:50:55;2.85;;;1.25;;
63874;SDS011;51595;24.180;-110.296;2023-07-16T00:53:22;3.78;;;1.63;;
63874;SDS011;51595;24.180;-110.296;2023-07-16T00:55:49;2.95;;;1.63;;
63874;SDS011;51595;24.180;-110.296;2023-07-16T00:58:15;2.45;;;1.35;;
63874;SDS011;51595;24.180;-110.296;2023-07-16T01:00:42;5.75;;;1.92;;
63874;SDS011;51595;24.180;-110.296;2023-07-16T01:03:09;10.95;;;2.00;;
63874;SDS011;51595;24.180;-110.296;2023-07-16T01:05:45;4.88;;;1.45;;
63874;SDS011;51595;24.180;-110.296;2023-07-16T01:08:14;4.82;;;1.45;;
63874;SDS011;51595;24.180;-110.296;2023-07-16T01:10:46;4.15;;;1.30;;
63874;SDS011;51595;24.180;-110.296;2023-07-16T01:13:13;1.63;;;1.10;;
63874;SDS011;51595;24.180;-110.296;2023-07-16T01:15:40;6.45;;;2.20;;
63874;SDS011;51595;24.180;-110.296;2023-07-16T01:18:07;3.65;;;1.38;;
63874;SDS011;51595;24.180;-110.296;2023-07-16T01:20:36;6.35;;;1.83;;
63874;SDS011;51595;24.180;-110.296;2023-07-16T01:31:42;3.28;;;1.50;;
63874;SDS011;51595;24.180;-110.296;2023-07-16T01:34:11;3.22;;;1.25;;
63874;SDS011;51595;24.180;-110.296;2023-07-16T01:36:39;3.55;;;1.60;;
63874;SDS011;51595;24.180;-110.296;2023-07-16T01:39:06;5.90;;;1.63;;
63874;SDS011;51595;24.180;-110.296;2023-07-16T01:41:33;6.20;;;1.70;;
63874;SDS011;51595;24.180;-110.296;2023-07-16T01:43:59;3.88;;;1.52;;
63874;SDS011;51595;24.180;-110.296;2023-07-16T01:46:26;4.72;;;1.48;;
63874;SDS011;51595;24.180;-110.296;2023-07-16T01:48:52;4.18;;;1.90;;
63874;SDS011;51595;24.180;-110.296;2023-07-16T01:51:19;4.50;;;1.60;;
63874;SDS011;51595;24.180;-110.296;2023-07-16T01:53:45;6.80;;;1.67;;
63874;SDS011;51595;24.180;-110.296;2023-07-16T01:56:12;4.65;;;1.80;;
63874;SDS011;51595;24.180;-110.296;2023-07-16T01:58:38;6.10;;;1.90;;
63874;SDS011;51595;24.180;-110.296;2023-07-16T02:01:05;4.60;;;1.67;;
63874;SDS011;51595;24.180;-110.296;2023-07-16T02:03:31;4.65;;;1.90;;
63874;SDS011;51595;24.180;-110.296;2023-07-16T02:05:58;2.70;;;1.35;;
63874;SDS011;51595;24.180;-110.296;2023-07-16T02:08:24;2.10;;;1.58;;
63874;SDS011;51595;24.180;-110.296;2023-07-16T02:10:51;4.53;;;1.50;;
63874;SDS011;51595;24.180;-110.296;2023-07-16T02:13:17;3.85;;;1.65;;
63874;SDS011;51595;24.180;-110.296;2023-07-16T02:15:43;11.93;;;1.75;;
63874;SDS011;51595;24.180;-110.296;2023-07-16T02:18:10;8.05;;;1.80;;
63874;SDS011;51595;24.180;-110.296;2023-07-16T02:20:37;5.38;;;1.85;;
63874;SDS011;51595;24.180;-110.296;2023-07-16T02:23:03;5.85;;;1.98;;
63874;SDS011;51595;24.180;-110.296;2023-07-16T02:25:29;2.95;;;1.40;;
63874;SDS011;51595;24.180;-110.296;2023-07-16T02:27:57;3.58;;;1.85;;
63874;SDS011;51595;24.180;-110.296;2023-07-16T02:30:23;3.35;;;1.45;;
63874;SDS011;51595;24.180;-110.296;2023-07-16T02:32:50;6.35;;;2.60;;
63874;SDS011;51595;24.180;-110.296;2023-07-16T02:35:16;8.02;;;2.05;;
63874;SDS011;51595;24.180;-110.296;2023-07-16T02:37:43;3.30;;;1.88;;
63874;SDS011;51595;24.180;-110.296;2023-07-16T02:40:09;7.55;;;1.85;;
63874;SDS011;51595;24.180;-110.296;2023-07-16T02:42:36;7.70;;;2.17;;
63874;SDS011;51595;24.180;-110.296;2023-07-16T02:45:03;4.10;;;2.25;;
63874;SDS011;51595;24.180;-110.296;2023-07-16T02:47:29;5.55;;;2.22;;
63874;SDS011;51595;24.180;-110.296;2023-07-16T02:49:56;6.97;;;2.47;;
63874;SDS011;51595;24.180;-110.296;2023-07-16T02:52:22;5.43;;;2.10;;
63874;SDS011;51595;24.180;-110.296;2023-07-16T02:54:49;11.98;;;2.38;;
63874;SDS011;51595;24.180;-110.296;2023-07-16T02:57:16;3.83;;;1.88;;
63874;SDS011;51595;24.180;-110.296;2023-07-16T02:59:42;8.35;;;2.05;;
63874;SDS011;51595;24.180;-110.296;2023-07-16T03:02:09;7.35;;;2.15;;
63874;SDS011;51595;24.180;-110.296;2023-07-16T03:04:35;6.63;;;1.95;;
63874;SDS011;51595;24.180;-110.296;2023-07-16T03:07:03;4.53;;;2.38;;
63874;SDS011;51595;24.180;-110.296;2023-07-16T03:09:30;5.38;;;2.42;;
63874;SDS011;51595;24.180;-110.296;2023-07-16T03:11:56;6.38;;;2.30;;
63874;SDS011;51595;24.180;-110.296;2023-07-16T03:14:24;8.45;;;2.53;;
63874;SDS011;51595;24.180;-110.296;2023-07-16T03:16:51;7.88;;;2.95;;
63874;SDS011;51595;24.180;-110.296;2023-07-16T03:19:17;4.82;;;2.05;;
63874;SDS011;51595;24.180;-110.296;2023-07-16T03:21:44;16.05;;;2.33;;
63874;SDS011;51595;24.180;-110.296;2023-07-16T03:24:11;6.55;;;2.30;;
63874;SDS011;51595;24.180;-110.296;2023-07-16T03:26:37;7.00;;;2.15;;
63874;SDS011;51595;24.180;-110.296;2023-07-16T03:29:04;3.78;;;2.00;;
63874;SDS011;51595;24.180;-110.296;2023-07-16T03:31:30;8.90;;;2.40;;
63874;SDS011;51595;24.180;-110.296;2023-07-16T03:33:57;7.60;;;2.10;;
63874;SDS011;51595;24.180;-110.296;2023-07-16T03:36:23;5.50;;;2.60;;
63874;SDS011;51595;24.180;-110.296;2023-07-16T03:38:49;27.38;;;2.75;;
63874;SDS011;51595;24.180;-110.296;2023-07-16T03:41:16;7.00;;;2.50;;
63874;SDS011;51595;24.180;-110.296;2023-07-16T03:43:43;9.35;;;3.08;;
63874;SDS011;51595;24.180;-110.296;2023-07-16T03:46:09;5.22;;;2.25;;
63874;SDS011;51595;24.180;-110.296;2023-07-16T03:48:36;9.60;;;2.50;;
63874;SDS011;51595;24.180;-110.296;2023-07-16T03:51:02;12.60;;;2.38;;
63874;SDS011;51595;24.180;-110.296;2023-07-16T03:53:30;7.10;;;3.00;;
63874;SDS011;51595;24.180;-110.296;2023-07-16T03:55:56;7.65;;;2.47;;
63874;SDS011;51595;24.180;-110.296;2023-07-16T03:58:23;10.75;;;2.80;;
63874;SDS011;51595;24.180;-110.296;2023-07-16T04:00:49;13.63;;;3.30;;
63874;SDS011;51595;24.180;-110.296;2023-07-16T04:03:16;7.07;;;2.95;;
63874;SDS011;51595;24.180;-110.296;2023-07-16T04:05:42;8.88;;;2.83;;
63874;SDS011;51595;24.180;-110.296;2023-07-16T04:08:09;12.55;;;2.47;;
63874;SDS011;51595;24.180;-110.296;2023-07-16T04:10:36;6.82;;;2.30;;
63874;SDS011;51595;24.180;-110.296;2023-07-16T04:13:02;7.35;;;2.78;;
63874;SDS011;51595;24.180;-110.296;2023-07-16T04:15:29;11.77;;;2.80;;
63874;SDS011;51595;24.180;-110.296;2023-07-16T04:17:55;9.27;;;2.42;;
63874;SDS011;51595;24.180;-110.296;2023-07-16T04:20:21;9.80;;;2.88;;
63874;SDS011;51595;24.180;-110.296;2023-07-16T04:22:48;5.18;;;2.30;;
63874;SDS011;51595;24.180;-110.296;2023-07-16T04:25:16;10.57;;;3.45;;
63874;SDS011;51595;24.180;-110.296;2023-07-16T04:27:44;10.55;;;2.75;;
63874;SDS011;51595;24.180;-110.296;2023-07-16T04:30:10;10.27;;;2.70;;
63874;SDS011;51595;24.180;-110.296;2023-07-16T04:32:37;10.25;;;2.90;;
63874;SDS011;51595;24.180;-110.296;2023-07-16T04:35:05;11.77;;;2.70;;
63874;SDS011;51595;24.180;-110.296;2023-07-16T04:37:32;6.85;;;2.33;;
63874;SDS011;51595;24.180;-110.296;2023-07-16T04:39:58;9.38;;;2.50;;
63874;SDS011;51595;24.180;-110.296;2023-07-16T04:42:25;8.18;;;2.58;;
63874;SDS011;51595;24.180;-110.296;2023-07-16T04:44:51;8.52;;;2.70;;
63874;SDS011;51595;24.180;-110.296;2023-07-16T04:47:18;5.78;;;2.38;;
63874;SDS011;51595;24.180;-110.296;2023-07-16T04:49:45;9.57;;;2.83;;
63874;SDS011;51595;24.180;-110.296;2023-07-16T04:52:11;7.00;;;1.98;;
63874;SDS011;51595;24.180;-110.296;2023-07-16T04:54:38;11.38;;;2.67;;
63874;SDS011;51595;24.180;-110.296;2023-07-16T04:57:05;6.90;;;2.60;;
63874;SDS011;51595;24.180;-110.296;2023-07-16T04:59:33;13.82;;;3.17;;
63874;SDS011;51595;24.180;-110.296;2023-07-16T05:01:59;6.70;;;2.35;;
63874;SDS011;51595;24.180;-110.296;2023-07-16T05:04:27;7.13;;;3.10;;
63874;SDS011;51595;24.180;-110.296;2023-07-16T05:06:54;6.18;;;2.47;;
63874;SDS011;51595;24.180;-110.296;2023-07-16T05:09:20;12.77;;;3.67;;
63874;SDS011;51595;24.180;-110.296;2023-07-16T05:11:47;10.88;;;3.05;;
63874;SDS011;51595;24.180;-110.296;2023-07-16T05:14:13;12.23;;;2.80;;
63874;SDS011;51595;24.180;-110.296;2023-07-16T05:16:39;10.40;;;3.45;;
63874;SDS011;51595;24.180;-110.296;2023-07-16T05:19:06;10.43;;;2.90;;
63874;SDS011;51595;24.180;-110.296;2023-07-16T05:21:32;7.85;;;2.92;;
63874;SDS011;51595;24.180;-110.296;2023-07-16T05:23:59;8.57;;;2.55;;
63874;SDS011;51595;24.180;-110.296;2023-07-16T05:26:25;12.35;;;3.42;;
63874;SDS011;51595;24.180;-110.296;2023-07-16T05:28:52;10.40;;;2.72;;
63874;SDS011;51595;24.180;-110.296;2023-07-16T05:31:18;9.82;;;3.17;;
63874;SDS011;51595;24.180;-110.296;2023-07-16T05:33:44;7.88;;;3.08;;
63874;SDS011;51595;24.180;-110.296;2023-07-16T05:36:11;9.20;;;3.03;;
63874;SDS011;51595;24.180;-110.296;2023-07-16T05:38:37;5.43;;;2.55;;
63874;SDS011;51595;24.180;-110.296;2023-07-16T05:41:04;5.28;;;2.17;;
63874;SDS011;51595;24.180;-110.296;2023-07-16T05:43:31;11.50;;;2.80;;
63874;SDS011;51595;24.180;-110.296;2023-07-16T05:45:58;13.40;;;2.83;;
63874;SDS011;51595;24.180;-110.296;2023-07-16T05:48:24;8.75;;;2.47;;
63874;SDS011;51595;24.180;-110.296;2023-07-16T05:50:51;13.88;;;2.78;;
63874;SDS011;51595;24.180;-110.296;2023-07-16T05:53:17;5.53;;;2.50;;
63874;SDS011;51595;24.180;-110.296;2023-07-16T05:55:44;6.70;;;2.08;;
63874;SDS011;51595;24.180;-110.296;2023-07-16T05:58:10;16.15;;;3.13;;
63874;SDS011;51595;24.180;-110.296;2023-07-16T06:00:37;9.68;;;3.15;;
63874;SDS011;51595;24.180;-110.296;2023-07-16T06:03:04;4.93;;;2.50;;
63874;SDS011;51595;24.180;-110.296;2023-07-16T06:05:32;5.35;;;2.47;;
63874;SDS011;51595;24.180;-110.296;2023-07-16T06:08:00;8.65;;;2.30;;
63874;SDS011;51595;24.180;-110.296;2023-07-16T06:10:26;19.25;;;2.88;;
63874;SDS011;51595;24.180;-110.296;2023-07-16T06:12:53;11.40;;;2.92;;
63874;SDS011;51595;24.180;-110.296;2023-07-16T06:15:21;11.20;;;3.15;;
63874;SDS011;51595;24.180;-110.296;2023-07-16T06:17:48;6.13;;;3.05;;
63874;SDS011;51595;24.180;-110.296;2023-07-16T06:20:14;8.63;;;2.20;;
63874;SDS011;51595;24.180;-110.296;2023-07-16T06:22:41;7.50;;;2.58;;
63874;SDS011;51595;24.180;-110.296;2023-07-16T06:25:07;10.23;;;3.35;;
63874;SDS011;51595;24.180;-110.296;2023-07-16T06:27:36;10.52;;;2.53;;
63874;SDS011;51595;24.180;-110.296;2023-07-16T06:30:02;6.60;;;2.80;;
63874;SDS011;51595;24.180;-110.296;2023-07-16T06:32:32;10.02;;;2.90;;
63874;SDS011;51595;24.180;-110.296;2023-07-16T06:34:58;8.07;;;2.80;;
63874;SDS011;51595;24.180;-110.296;2023-07-16T06:37:24;6.22;;;2.17;;
63874;SDS011;51595;24.180;-110.296;2023-07-16T06:39:52;9.82;;;2.72;;
63874;SDS011;51595;24.180;-110.296;2023-07-16T06:42:18;6.80;;;2.45;;
63874;SDS011;51595;24.180;-110.296;2023-07-16T06:44:45;8.07;;;2.78;;
63874;SDS011;51595;24.180;-110.296;2023-07-16T06:47:12;9.10;;;3.28;;
63874;SDS011;51595;24.180;-110.296;2023-07-16T06:49:38;9.43;;;3.15;;
63874;SDS011;51595;24.180;-110.296;2023-07-16T06:52:05;14.50;;;3.20;;
63874;SDS011;51595;24.180;-110.296;2023-07-16T06:54:31;9.18;;;2.85;;
63874;SDS011;51595;24.180;-110.296;2023-07-16T06:56:58;7.88;;;2.72;;
63874;SDS011;51595;24.180;-110.296;2023-07-16T06:59:24;10.98;;;2.95;;
63874;SDS011;51595;24.180;-110.296;2023-07-16T07:01:51;11.70;;;2.30;;
63874;SDS011;51595;24.180;-110.296;2023-07-16T07:04:17;10.35;;;2.50;;
63874;SDS011;51595;24.180;-110.296;2023-07-16T07:06:44;9.63;;;2.75;;
63874;SDS011;51595;24.180;-110.296;2023-07-16T07:09:10;6.95;;;2.47;;
63874;SDS011;51595;24.180;-110.296;2023-07-16T07:11:36;11.95;;;2.28;;
63874;SDS011;51595;24.180;-110.296;2023-07-16T07:14:03;7.72;;;2.83;;
63874;SDS011;51595;24.180;-110.296;2023-07-16T07:16:29;8.70;;;2.97;;
63874;SDS011;51595;24.180;-110.296;2023-07-16T07:18:58;11.20;;;2.65;;
63874;SDS011;51595;24.180;-110.296;2023-07-16T07:21:25;4.47;;;2.15;;
63874;SDS011;51595;24.180;-110.296;2023-07-16T07:23:51;7.50;;;2.20;;
63874;SDS011;51595;24.180;-110.296;2023-07-16T07:26:18;9.52;;;2.40;;
63874;SDS011;51595;24.180;-110.296;2023-07-16T07:28:44;7.97;;;2.95;;
63874;SDS011;51595;24.180;-110.296;2023-07-16T07:31:11;7.57;;;2.05;;
63874;SDS011;51595;24.180;-110.296;2023-07-16T07:33:37;10.10;;;2.42;;
63874;SDS011;51595;24.180;-110.296;2023-07-16T07:36:03;10.32;;;2.85;;
63874;SDS011;51595;24.180;-110.296;2023-07-16T07:38:30;14.85;;;2.97;;
63874;SDS011;51595;24.180;-110.296;2023-07-16T07:40:56;10.50;;;2.42;;
63874;SDS011;51595;24.180;-110.296;2023-07-16T07:43:23;5.00;;;2.53;;
63874;SDS011;51595;24.180;-110.296;2023-07-16T07:45:49;8.35;;;2.67;;
63874;SDS011;51595;24.180;-110.296;2023-07-16T07:48:16;5.55;;;2.13;;
63874;SDS011;51595;24.180;-110.296;2023-07-16T07:50:42;12.10;;;2.78;;
63874;SDS011;51595;24.180;-110.296;2023-07-16T07:53:09;7.28;;;2.53;;
63874;SDS011;51595;24.180;-110.296;2023-07-16T07:55:35;6.65;;;2.25;;
63874;SDS011;51595;24.180;-110.296;2023-07-16T07:58:02;7.90;;;2.67;;
63874;SDS011;51595;24.180;-110.296;2023-07-16T08:00:30;10.07;;;2.22;;
63874;SDS011;51595;24.180;-110.296;2023-07-16T08:02:56;9.82;;;2.05;;
63874;SDS011;51595;24.180;-110.296;2023-07-16T08:05:23;11.75;;;2.97;;
63874;SDS011;51595;24.180;-110.296;2023-07-16T08:07:49;11.75;;;2.67;;
63874;SDS011;51595;24.180;-110.296;2023-07-16T08:10:16;6.93;;;2.17;;
63874;SDS011;51595;24.180;-110.296;2023-07-16T08:12:43;11.60;;;2.67;;
63874;SDS011;51595;24.180;-110.296;2023-07-16T08:15:10;8.50;;;3.08;;
63874;SDS011;51595;24.180;-110.296;2023-07-16T08:17:41;4.25;;;1.85;;
63874;SDS011;51595;24.180;-110.296;2023-07-16T08:20:08;5.40;;;2.67;;
63874;SDS011;51595;24.180;-110.296;2023-07-16T08:22:35;10.07;;;3.13;;
63874;SDS011;51595;24.180;-110.296;2023-07-16T08:25:01;6.22;;;2.83;;
63874;SDS011;51595;24.180;-110.296;2023-07-16T08:27:29;7.82;;;2.35;;
63874;SDS011;51595;24.180;-110.296;2023-07-16T08:29:55;6.93;;;2.45;;
63874;SDS011;51595;24.180;-110.296;2023-07-16T08:32:22;7.07;;;2.60;;
63874;SDS011;51595;24.180;-110.296;2023-07-16T08:34:49;7.65;;;2.25;;
63874;SDS011;51595;24.180;-110.296;2023-07-16T08:37:15;5.45;;;2.35;;
63874;SDS011;51595;24.180;-110.296;2023-07-16T08:39:42;12.52;;;2.42;;
63874;SDS011;51595;24.180;-110.296;2023-07-16T08:42:09;13.38;;;2.70;;
63874;SDS011;51595;24.180;-110.296;2023-07-16T08:44:37;17.33;;;3.45;;
63874;SDS011;51595;24.180;-110.296;2023-07-16T08:47:05;8.85;;;2.83;;
63874;SDS011;51595;24.180;-110.296;2023-07-16T08:49:32;7.40;;;2.28;;
63874;SDS011;51595;24.180;-110.296;2023-07-16T08:52:03;7.25;;;2.08;;
63874;SDS011;51595;24.180;-110.296;2023-07-16T08:54:33;7.22;;;2.28;;
63874;SDS011;51595;24.180;-110.296;2023-07-16T08:56:59;7.97;;;2.60;;
63874;SDS011;51595;24.180;-110.296;2023-07-16T08:59:26;11.98;;;2.65;;
63874;SDS011;51595;24.180;-110.296;2023-07-16T09:01:53;5.10;;;2.10;;
63874;SDS011;51595;24.180;-110.296;2023-07-16T09:04:20;8.98;;;2.95;;
63874;SDS011;51595;24.180;-110.296;2023-07-16T09:06:47;10.10;;;3.20;;
63874;SDS011;51595;24.180;-110.296;2023-07-16T09:09:21;15.07;;;2.47;;
63874;SDS011;51595;24.180;-110.296;2023-07-16T09:11:48;8.82;;;2.42;;
63874;SDS011;51595;24.180;-110.296;2023-07-16T09:14:18;7.97;;;2.45;;
63874;SDS011;51595;24.180;-110.296;2023-07-16T09:16:49;12.57;;;3.10;;
63874;SDS011;51595;24.180;-110.296;2023-07-16T09:19:16;6.93;;;2.58;;
63874;SDS011;51595;24.180;-110.296;2023-07-16T09:21:50;7.93;;;2.97;;
63874;SDS011;51595;24.180;-110.296;2023-07-16T09:24:18;8.90;;;3.10;;
63874;SDS011;51595;24.180;-110.296;2023-07-16T09:26:51;10.80;;;2.70;;
63874;SDS011;51595;24.180;-110.296;2023-07-16T09:29:19;5.87;;;2.23;;
63874;SDS011;51595;24.180;-110.296;2023-07-16T09:34:19;11.15;;;3.13;;
63874;SDS011;51595;24.180;-110.296;2023-07-16T09:36:47;8.75;;;2.03;;
63874;SDS011;51595;24.180;-110.296;2023-07-16T09:39:17;6.63;;;2.90;;
63874;SDS011;51595;24.180;-110.296;2023-07-16T09:41:49;6.32;;;2.70;;
63874;SDS011;51595;24.180;-110.296;2023-07-16T09:44:16;11.77;;;2.67;;
63874;SDS011;51595;24.180;-110.296;2023-07-16T09:46:44;8.55;;;2.95;;
63874;SDS011;51595;24.180;-110.296;2023-07-16T09:49:11;8.35;;;2.65;;
63874;SDS011;51595;24.180;-110.296;2023-07-16T09:51:39;10.38;;;3.15;;
63874;SDS011;51595;24.180;-110.296;2023-07-16T09:54:09;12.52;;;2.92;;
63874;SDS011;51595;24.180;-110.296;2023-07-16T09:56:49;13.02;;;3.05;;
63874;SDS011;51595;24.180;-110.296;2023-07-16T09:59:22;4.47;;;2.20;;
63874;SDS011;51595;24.180;-110.296;2023-07-16T10:01:50;8.50;;;2.42;;
63874;SDS011;51595;24.180;-110.296;2023-07-16T10:04:18;5.57;;;2.35;;
63874;SDS011;51595;24.180;-110.296;2023-07-16T10:06:52;9.38;;;2.78;;
63874;SDS011;51595;24.180;-110.296;2023-07-16T10:14:43;8.15;;;2.50;;
63874;SDS011;51595;24.180;-110.296;2023-07-16T10:17:24;15.25;;;2.28;;
63874;SDS011;51595;24.180;-110.296;2023-07-16T10:19:56;11.88;;;3.00;;
63874;SDS011;51595;24.180;-110.296;2023-07-16T10:27:46;10.60;;;2.88;;
63874;SDS011;51595;24.180;-110.296;2023-07-16T10:30:14;7.50;;;2.60;;
63874;SDS011;51595;24.180;-110.296;2023-07-16T10:32:41;8.05;;;2.15;;
63874;SDS011;51595;24.180;-110.296;2023-07-16T10:35:08;17.35;;;3.53;;
63874;SDS011;51595;24.180;-110.296;2023-07-16T10:37:37;7.45;;;2.42;;
63874;SDS011;51595;24.180;-110.296;2023-07-16T10:40:04;11.40;;;2.63;;
63874;SDS011;51595;24.180;-110.296;2023-07-16T10:42:32;9.23;;;2.95;;
63874;SDS011;51595;24.180;-110.296;2023-07-16T10:44:59;6.85;;;2.65;;
63874;SDS011;51595;24.180;-110.296;2023-07-16T10:47:31;6.80;;;2.65;;
63874;SDS011;51595;24.180;-110.296;2023-07-16T10:49:59;12.40;;;3.03;;
63874;SDS011;51595;24.180;-110.296;2023-07-16T10:52:26;7.43;;;2.42;;
63874;SDS011;51595;24.180;-110.296;2023-07-16T10:54:52;7.40;;;2.85;;
63874;SDS011;51595;24.180;-110.296;2023-07-16T10:57:20;7.78;;;2.50;;
63874;SDS011;51595;24.180;-110.296;2023-07-16T10:59:48;12.60;;;3.10;;
63874;SDS011;51595;24.180;-110.296;2023-07-16T11:02:16;9.45;;;2.35;;
63874;SDS011;51595;24.180;-110.296;2023-07-16T11:04:44;9.35;;;2.83;;
63874;SDS011;51595;24.180;-110.296;2023-07-16T11:07:12;12.20;;;3.38;;
63874;SDS011;51595;24.180;-110.296;2023-07-16T11:09:49;13.85;;;3.28;;
63874;SDS011;51595;24.180;-110.296;2023-07-16T11:12:17;11.38;;;3.08;;
63874;SDS011;51595;24.180;-110.296;2023-07-16T11:14:46;9.32;;;2.28;;
63874;SDS011;51595;24.180;-110.296;2023-07-16T11:17:14;10.32;;;3.35;;
63874;SDS011;51595;24.180;-110.296;2023-07-16T11:19:44;8.48;;;2.47;;
63874;SDS011;51595;24.180;-110.296;2023-07-16T11:22:11;5.25;;;2.60;;
63874;SDS011;51595;24.180;-110.296;2023-07-16T11:24:39;10.57;;;2.63;;
63874;SDS011;51595;24.180;-110.296;2023-07-16T11:27:16;6.60;;;2.60;;
63874;SDS011;51595;24.180;-110.296;2023-07-16T11:32:30;11.13;;;3.33;;
63874;SDS011;51595;24.180;-110.296;2023-07-16T11:35:10;14.50;;;2.45;;
63874;SDS011;51595;24.180;-110.296;2023-07-16T11:37:41;12.45;;;3.08;;
63874;SDS011;51595;24.180;-110.296;2023-07-16T11:40:09;13.10;;;2.85;;
63874;SDS011;51595;24.180;-110.296;2023-07-16T11:42:40;8.32;;;2.53;;
63874;SDS011;51595;24.180;-110.296;2023-07-16T11:45:19;7.43;;;2.75;;
63874;SDS011;51595;24.180;-110.296;2023-07-16T11:47:48;9.75;;;2.53;;
63874;SDS011;51595;24.180;-110.296;2023-07-16T11:50:15;11.15;;;2.88;;
63874;SDS011;51595;24.180;-110.296;2023-07-16T11:52:42;20.15;;;4.00;;
63874;SDS011;51595;24.180;-110.296;2023-07-16T11:55:08;9.73;;;2.72;;
63874;SDS011;51595;24.180;-110.296;2023-07-16T11:57:34;10.63;;;3.10;;
63874;SDS011;51595;24.180;-110.296;2023-07-16T12:00:02;6.30;;;2.40;;
63874;SDS011;51595;24.180;-110.296;2023-07-16T12:02:29;10.73;;;2.72;;
63874;SDS011;51595;24.180;-110.296;2023-07-16T12:04:55;8.38;;;2.72;;
63874;SDS011;51595;24.180;-110.296;2023-07-16T12:07:37;10.52;;;3.15;;
63874;SDS011;51595;24.180;-110.296;2023-07-16T12:10:05;10.48;;;2.63;;
63874;SDS011;51595;24.180;-110.296;2023-07-16T12:12:35;9.13;;;3.30;;
63874;SDS011;51595;24.180;-110.296;2023-07-16T12:15:03;12.02;;;3.05;;
63874;SDS011;51595;24.180;-110.296;2023-07-16T12:17:31;7.57;;;2.67;;
63874;SDS011;51595;24.180;-110.296;2023-07-16T12:19:57;12.30;;;3.47;;
63874;SDS011;51595;24.180;-110.296;2023-07-16T12:22:24;10.20;;;2.47;;
63874;SDS011;51595;24.180;-110.296;2023-07-16T12:24:50;7.28;;;2.63;;
63874;SDS011;51595;24.180;-110.296;2023-07-16T12:27:17;9.07;;;2.75;;
63874;SDS011;51595;24.180;-110.296;2023-07-16T12:29:45;5.88;;;2.40;;
63874;SDS011;51595;24.180;-110.296;2023-07-16T12:32:12;6.97;;;2.58;;
63874;SDS011;51595;24.180;-110.296;2023-07-16T12:34:39;11.70;;;2.78;;
63874;SDS011;51595;24.180;-110.296;2023-07-16T12:37:06;8.60;;;2.92;;
63874;SDS011;51595;24.180;-110.296;2023-07-16T12:39:32;9.32;;;2.60;;
63874;SDS011;51595;24.180;-110.296;2023-07-16T12:42:00;8.60;;;2.67;;
63874;SDS011;51595;24.180;-110.296;2023-07-16T12:44:28;8.55;;;2.63;;
63874;SDS011;51595;24.180;-110.296;2023-07-16T12:46:55;6.63;;;2.15;;
63874;SDS011;51595;24.180;-110.296;2023-07-16T12:49:22;12.70;;;3.13;;
63874;SDS011;51595;24.180;-110.296;2023-07-16T12:51:50;4.07;;;1.98;;
63874;SDS011;51595;24.180;-110.296;2023-07-16T12:54:16;9.18;;;2.50;;
63874;SDS011;51595;24.180;-110.296;2023-07-16T12:56:42;5.97;;;2.05;;
63874;SDS011;51595;24.180;-110.296;2023-07-16T12:59:09;4.55;;;2.42;;
63874;SDS011;51595;24.180;-110.296;2023-07-16T13:01:36;10.80;;;2.28;;
63874;SDS011;51595;24.180;-110.296;2023-07-16T13:04:02;5.18;;;2.10;;
63874;SDS011;51595;24.180;-110.296;2023-07-16T13:06:30;5.05;;;2.08;;
63874;SDS011;51595;24.180;-110.296;2023-07-16T13:08:57;10.32;;;2.60;;
63874;SDS011;51595;24.180;-110.296;2023-07-16T13:11:24;8.43;;;2.67;;
63874;SDS011;51595;24.180;-110.296;2023-07-16T13:13:51;8.30;;;2.40;;
63874;SDS011;51595;24.180;-110.296;2023-07-16T13:16:18;5.70;;;2.05;;
63874;SDS011;51595;24.180;-110.296;2023-07-16T13:18:45;12.48;;;2.80;;
63874;SDS011;51595;24.180;-110.296;2023-07-16T13:21:11;9.35;;;2.50;;
63874;SDS011;51595;24.180;-110.296;2023-07-16T13:23:37;8.30;;;3.15;;
63874;SDS011;51595;24.180;-110.296;2023-07-16T13:26:04;5.00;;;2.05;;
63874;SDS011;51595;24.180;-110.296;2023-07-16T13:28:30;4.50;;;2.17;;
63874;SDS011;51595;24.180;-110.296;2023-07-16T13:30:57;7.57;;;2.83;;
63874;SDS011;51595;24.180;-110.296;2023-07-16T13:33:23;5.68;;;2.20;;
63874;SDS011;51595;24.180;-110.296;2023-07-16T13:35:50;5.55;;;2.50;;
63874;SDS011;51595;24.180;-110.296;2023-07-16T13:38:16;9.85;;;3.20;;
63874;SDS011;51595;24.180;-110.296;2023-07-16T13:40:42;11.63;;;3.08;;
63874;SDS011;51595;24.180;-110.296;2023-07-16T13:43:09;12.25;;;3.17;;
63874;SDS011;51595;24.180;-110.296;2023-07-16T13:45:36;13.98;;;2.72;;
63874;SDS011;51595;24.180;-110.296;2023-07-16T13:48:04;9.20;;;2.42;;
63874;SDS011;51595;24.180;-110.296;2023-07-16T13:50:32;8.65;;;2.63;;
63874;SDS011;51595;24.180;-110.296;2023-07-16T13:52:58;10.13;;;3.00;;
63874;SDS011;51595;24.180;-110.296;2023-07-16T13:55:27;8.32;;;2.75;;
63874;SDS011;51595;24.180;-110.296;2023-07-16T13:57:54;10.40;;;3.25;;
63874;SDS011;51595;24.180;-110.296;2023-07-16T14:00:23;4.43;;;2.53;;
63874;SDS011;51595;24.180;-110.296;2023-07-16T14:02:50;10.27;;;3.22;;
63874;SDS011;51595;24.180;-110.296;2023-07-16T14:05:17;7.65;;;3.30;;
63874;SDS011;51595;24.180;-110.296;2023-07-16T14:07:45;12.20;;;3.10;;
63874;SDS011;51595;24.180;-110.296;2023-07-16T14:10:12;15.77;;;3.90;;
63874;SDS011;51595;24.180;-110.296;2023-07-16T14:12:38;10.85;;;2.38;;
63874;SDS011;51595;24.180;-110.296;2023-07-16T14:15:05;9.68;;;2.85;;
63874;SDS011;51595;24.180;-110.296;2023-07-16T14:17:32;6.40;;;2.60;;
63874;SDS011;51595;24.180;-110.296;2023-07-16T14:19:58;10.57;;;3.50;;
63874;SDS011;51595;24.180;-110.296;2023-07-16T14:22:25;6.95;;;2.28;;
63874;SDS011;51595;24.180;-110.296;2023-07-16T14:24:53;11.10;;;3.70;;
63874;SDS011;51595;24.180;-110.296;2023-07-16T14:27:19;6.47;;;2.55;;
63874;SDS011;51595;24.180;-110.296;2023-07-16T14:29:46;12.30;;;3.50;;
63874;SDS011;51595;24.180;-110.296;2023-07-16T14:32:12;8.27;;;2.80;;